createdAt,value
2024-01-16T00:02:08.977Z,12.42
2024-01-16T00:04:38.189Z,12.39
2024-01-16T00:07:05.986Z,12.38
2024-01-16T00:09:36.413Z,12.37
2024-01-16T00:12:04.717Z,12.37
2024-01-16T00:14:37.084Z,12.39
2024-01-16T00:17:05.048Z,12.39
2024-01-16T00:19:32.486Z,12.41
2024-01-16T00:22:01.223Z,12.44
2024-01-16T00:24:28.852Z,12.47
2024-01-16T00:26:56.306Z,12.46
2024-01-16T00:29:24.407Z,12.46
2024-01-16T00:31:51.886Z,12.45
2024-01-16T00:34:19.486Z,12.46
2024-01-16T00:36:47.230Z,12.49
2024-01-16T00:39:14.867Z,12.46
2024-01-16T00:41:42.163Z,12.40
2024-01-16T00:44:09.382Z,12.37
2024-01-16T00:46:36.748Z,12.38
2024-01-16T00:49:03.926Z,12.37
2024-01-16T00:51:31.216Z,12.32
2024-01-16T00:53:58.181Z,12.26
2024-01-16T00:56:28.346Z,12.20
2024-01-16T00:58:55.842Z,12.16
2024-01-16T01:01:23.807Z,12.10
2024-01-16T01:03:52.101Z,11.98
2024-01-16T01:06:19.920Z,11.89
2024-01-16T01:08:46.976Z,11.83
2024-01-16T01:11:14.174Z,11.78
2024-01-16T01:13:41.294Z,11.73
2024-01-16T01:16:09.340Z,11.72
2024-01-16T01:18:36.702Z,11.73
2024-01-16T01:21:03.928Z,11.75
2024-01-16T01:23:31.740Z,11.72
2024-01-16T01:25:58.997Z,11.66
2024-01-16T01:28:26.263Z,11.61
2024-01-16T01:30:53.351Z,11.61
2024-01-16T01:33:20.707Z,11.65
2024-01-16T01:35:48.262Z,11.67
2024-01-16T01:38:15.356Z,11.62
2024-01-16T01:40:44.209Z,11.56
2024-01-16T01:43:20.219Z,11.56
2024-01-16T01:46:18.995Z,11.56
2024-01-16T01:48:50.973Z,11.52
2024-01-16T01:51:19.603Z,11.44
2024-01-16T01:53:50.738Z,11.29
2024-01-16T01:56:21.853Z,11.17
2024-01-16T01:58:54.258Z,11.05
2024-01-16T02:01:22.768Z,10.97
2024-01-16T02:03:52.040Z,10.94
2024-01-16T02:06:19.337Z,10.94
2024-01-16T02:08:46.719Z,10.93
2024-01-16T02:11:13.932Z,10.90
2024-01-16T02:13:42.450Z,10.85
2024-01-16T02:16:21.808Z,10.81
2024-01-16T02:18:49.953Z,10.75
2024-01-16T02:21:21.530Z,10.68
2024-01-16T02:23:49.266Z,10.62
2024-01-16T02:26:16.966Z,10.56
2024-01-16T02:28:44.174Z,10.49
2024-01-16T02:31:11.095Z,10.42
2024-01-16T02:33:38.813Z,10.39
2024-01-16T02:36:06.276Z,10.38
2024-01-16T02:38:33.588Z,10.34
2024-01-16T02:41:01.101Z,10.28
2024-01-16T02:43:28.175Z,10.21
2024-01-16T02:45:55.156Z,10.15
2024-01-16T02:48:22.067Z,10.09
2024-01-16T02:50:49.333Z,10.04
2024-01-16T02:53:16.579Z,9.95
2024-01-16T02:55:43.715Z,9.85
2024-01-16T02:58:10.628Z,9.75
2024-01-16T03:00:38.248Z,9.72
2024-01-16T03:03:05.718Z,9.69
2024-01-16T03:05:32.848Z,9.62
2024-01-16T03:07:59.933Z,9.58
2024-01-16T03:10:27.066Z,9.52
2024-01-16T03:12:54.204Z,9.43
2024-01-16T03:15:21.390Z,9.38
2024-01-16T03:17:49.082Z,9.27
2024-01-16T03:20:17.038Z,9.18
2024-01-16T03:22:44.899Z,9.13
2024-01-16T03:25:12.904Z,9.22
2024-01-16T03:27:39.964Z,9.23
2024-01-16T03:30:09.118Z,9.15
2024-01-16T03:32:37.336Z,9.15
2024-01-16T03:35:08.128Z,9.19
2024-01-16T03:37:35.349Z,9.21
2024-01-16T03:40:02.690Z,9.25
2024-01-16T03:42:29.621Z,9.28
2024-01-16T03:44:57.436Z,9.34
2024-01-16T03:47:24.734Z,9.44
2024-01-16T03:49:52.007Z,9.48
2024-01-16T03:52:19.104Z,9.46
2024-01-16T03:54:46.242Z,9.41
2024-01-16T03:57:13.347Z,9.40
2024-01-16T03:59:40.548Z,9.41
2024-01-16T04:02:07.841Z,9.41
2024-01-16T04:04:35.428Z,9.41
2024-01-16T04:07:02.600Z,9.37
2024-01-16T04:09:30.301Z,9.27
2024-01-16T04:11:57.500Z,9.19
2024-01-16T04:14:24.713Z,9.17
2024-01-16T04:16:52.318Z,9.15
2024-01-16T04:19:19.540Z,9.05
2024-01-16T04:21:47.054Z,8.91
2024-01-16T04:24:14.265Z,8.86
2024-01-16T04:26:41.422Z,8.90
2024-01-16T04:29:09.290Z,8.94
2024-01-16T04:31:42.721Z,8.96
2024-01-16T04:34:10.988Z,8.90
2024-01-16T04:36:38.697Z,8.83
2024-01-16T04:39:06.166Z,8.73
2024-01-16T04:41:33.455Z,8.70
2024-01-16T04:44:01.117Z,8.70
2024-01-16T04:46:28.276Z,8.69
2024-01-16T04:48:56.311Z,8.71
2024-01-16T04:51:23.471Z,8.76
2024-01-16T04:53:50.835Z,8.79
2024-01-16T04:56:18.112Z,8.76
2024-01-16T04:58:45.503Z,8.67
2024-01-16T05:01:13.870Z,8.53
2024-01-16T05:03:41.198Z,8.43
2024-01-16T05:06:15.851Z,8.44
2024-01-16T05:08:43.884Z,8.41
2024-01-16T05:11:11.208Z,8.45
2024-01-16T05:13:38.409Z,8.43
2024-01-16T05:16:06.954Z,8.39
2024-01-16T05:18:34.642Z,8.35
2024-01-16T05:21:03.194Z,8.38
2024-01-16T05:23:30.719Z,8.45
2024-01-16T05:25:58.561Z,8.49
2024-01-16T05:28:25.765Z,8.52
2024-01-16T05:30:53.152Z,8.56
2024-01-16T05:33:20.568Z,8.61
2024-01-16T05:35:47.852Z,8.63
2024-01-16T05:38:15.082Z,8.63
2024-01-16T05:40:42.556Z,8.65
2024-01-16T05:43:09.990Z,8.62
2024-01-16T05:45:37.290Z,8.65
2024-01-16T05:48:04.771Z,8.72
2024-01-16T05:50:32.503Z,8.74
2024-01-16T05:52:59.661Z,8.75
2024-01-16T05:55:26.810Z,8.77
2024-01-16T05:57:54.276Z,8.84
2024-01-16T06:00:23.798Z,8.89
2024-01-16T06:02:50.978Z,8.83
2024-01-16T06:05:18.444Z,8.74
2024-01-16T06:07:46.262Z,8.71
2024-01-16T06:10:16.728Z,8.70
2024-01-16T06:12:43.993Z,8.68
2024-01-16T06:15:13.544Z,8.70
2024-01-16T06:17:40.905Z,8.70
2024-01-16T06:20:08.726Z,8.72
2024-01-16T06:22:35.835Z,8.75
2024-01-16T06:25:03.155Z,8.80
2024-01-16T06:27:30.338Z,8.81
2024-01-16T06:29:57.557Z,8.83
2024-01-16T06:32:25.036Z,8.86
2024-01-16T06:34:52.838Z,8.87
2024-01-16T06:37:20.484Z,8.97
2024-01-16T06:39:47.905Z,9.05
2024-01-16T06:42:14.919Z,9.19
2024-01-16T06:44:42.486Z,9.27
2024-01-16T06:47:09.761Z,9.32
2024-01-16T06:49:37.080Z,9.38
2024-01-16T06:52:04.398Z,9.44
2024-01-16T06:54:31.561Z,9.48
2024-01-16T06:56:58.763Z,9.51
2024-01-16T06:59:25.768Z,9.57
2024-01-16T07:01:52.882Z,9.59
2024-01-16T07:04:20.240Z,9.64
2024-01-16T07:06:48.120Z,9.69
2024-01-16T07:09:16.735Z,9.71
2024-01-16T07:11:44.040Z,9.64
2024-01-16T07:14:11.850Z,9.63
2024-01-16T07:16:39.280Z,9.64
2024-01-16T07:19:06.502Z,9.68
2024-01-16T07:21:34.427Z,9.77
2024-01-16T07:24:01.471Z,9.85
2024-01-16T07:26:30.480Z,9.90
2024-01-16T07:28:57.861Z,9.97
2024-01-16T07:31:26.395Z,10.04
2024-01-16T07:33:54.042Z,10.12
2024-01-16T07:36:21.426Z,10.20
2024-01-16T07:38:49.364Z,10.32
2024-01-16T07:41:17.007Z,10.40
2024-01-16T07:43:46.702Z,10.46
2024-01-16T07:46:15.841Z,10.55
2024-01-16T07:48:43.620Z,10.67
2024-01-16T07:51:11.156Z,10.78
2024-01-16T07:53:38.613Z,10.77
2024-01-16T07:56:05.848Z,10.79
2024-01-16T07:58:33.026Z,10.91
2024-01-16T08:01:00.097Z,11.02
2024-01-16T08:03:27.424Z,11.16
2024-01-16T08:05:55.154Z,11.22
2024-01-16T08:08:22.773Z,11.27
2024-01-16T08:10:49.923Z,11.35
2024-01-16T08:13:17.508Z,11.43
2024-01-16T08:15:45.551Z,11.49
2024-01-16T08:18:13.172Z,11.56
2024-01-16T08:20:40.382Z,11.58
2024-01-16T08:23:07.660Z,11.67
2024-01-16T08:25:35.064Z,11.78
2024-01-16T08:28:02.499Z,11.88
2024-01-16T08:30:29.764Z,11.99
2024-01-16T08:32:57.486Z,12.10
2024-01-16T08:35:25.011Z,12.26
2024-01-16T08:37:52.518Z,12.40
2024-01-16T08:40:19.919Z,12.50
2024-01-16T08:42:54.490Z,12.57
2024-01-16T08:45:23.999Z,12.62
2024-01-16T08:47:51.275Z,12.67
2024-01-16T08:50:18.768Z,12.72
2024-01-16T08:52:45.973Z,12.81
2024-01-16T08:55:13.215Z,12.82
2024-01-16T08:57:40.303Z,12.79
2024-01-16T09:00:09.623Z,12.84
2024-01-16T09:02:36.946Z,12.89
2024-01-16T09:05:05.943Z,12.97
2024-01-16T09:07:33.279Z,13.03
2024-01-16T09:10:00.397Z,13.11
2024-01-16T09:12:27.615Z,13.19
2024-01-16T09:14:54.562Z,13.26
2024-01-16T09:17:21.794Z,13.36
2024-01-16T09:19:48.961Z,13.47
2024-01-16T09:22:16.900Z,13.45
2024-01-16T09:24:44.319Z,13.47
2024-01-16T09:27:11.514Z,13.46
2024-01-16T09:29:38.700Z,13.49
2024-01-16T09:32:06.328Z,13.55
2024-01-16T09:34:33.770Z,13.53
2024-01-16T09:37:03.404Z,13.51
2024-01-16T09:39:35.789Z,13.53
2024-01-16T09:42:02.986Z,13.60
2024-01-16T09:44:30.404Z,13.67
2024-01-16T09:47:00.412Z,13.77
2024-01-16T09:49:30.673Z,13.85
2024-01-16T09:51:59.877Z,13.85
2024-01-16T09:54:27.657Z,13.86
2024-01-16T09:56:59.036Z,13.86
2024-01-16T09:59:29.214Z,13.86
2024-01-16T10:01:56.848Z,13.88
2024-01-16T10:04:24.415Z,13.99
2024-01-16T10:06:53.355Z,14.10
2024-01-16T10:09:20.576Z,14.18
2024-01-16T10:11:49.146Z,14.30
2024-01-16T10:14:18.467Z,14.47
2024-01-16T10:17:06.220Z,14.75
2024-01-16T10:19:43.266Z,15.02
2024-01-16T10:22:25.480Z,15.23
2024-01-16T10:25:17.175Z,15.61
2024-01-16T10:27:44.440Z,15.98
2024-01-16T10:30:12.373Z,16.30
2024-01-16T10:32:44.465Z,16.49
2024-01-16T10:35:14.382Z,16.77
2024-01-16T10:37:49.022Z,17.39
2024-01-16T10:40:23.572Z,18.63
2024-01-16T10:43:06.065Z,19.06
2024-01-16T10:45:34.350Z,19.57
2024-01-16T10:48:06.789Z,22.05
2024-01-16T10:50:36.376Z,24.75
2024-01-16T10:53:09.153Z,26.48
2024-01-16T10:55:49.460Z,27.50
2024-01-16T10:58:18.009Z,28.28
2024-01-16T11:00:48.973Z,29.16
2024-01-16T11:03:33.627Z,30.07
2024-01-16T11:06:02.735Z,30.65
2024-01-16T11:08:33.384Z,30.98
2024-01-16T11:11:01.981Z,31.90
2024-01-16T11:13:29.414Z,32.99
2024-01-16T11:15:58.759Z,32.82
2024-01-16T11:18:28.251Z,32.26
2024-01-16T11:21:05.985Z,32.28
2024-01-16T11:23:37.347Z,33.04
2024-01-16T11:26:26.939Z,33.66
2024-01-16T11:28:57.022Z,33.93
2024-01-16T11:31:31.456Z,34.02
2024-01-16T11:34:00.354Z,33.38
2024-01-16T11:36:54.735Z,33.75
2024-01-16T11:39:23.603Z,34.16
2024-01-16T11:41:56.000Z,35.02
2024-01-16T11:44:47.636Z,35.87
2024-01-16T11:47:19.463Z,36.63
2024-01-16T11:49:51.910Z,37.17
2024-01-16T11:52:44.264Z,37.76
2024-01-16T11:55:31.766Z,38.22
2024-01-16T11:58:20.672Z,38.27
2024-01-16T12:00:53.375Z,37.47
2024-01-16T12:03:32.002Z,37.49
2024-01-16T12:06:04.638Z,38.06
2024-01-16T12:08:33.037Z,38.79
2024-01-16T12:11:00.590Z,39.19
2024-01-16T12:13:27.537Z,39.54
2024-01-16T12:16:02.450Z,39.83
2024-01-16T12:18:38.515Z,40.03
2024-01-16T12:21:11.847Z,39.96
2024-01-16T12:23:43.977Z,39.77
2024-01-16T12:26:25.785Z,39.43
2024-01-16T12:28:56.294Z,39.36
2024-01-16T12:31:28.067Z,39.26
2024-01-16T12:34:08.391Z,39.05
2024-01-16T12:36:36.370Z,38.61
2024-01-16T12:39:05.033Z,38.44
2024-01-16T12:41:42.934Z,38.36
2024-01-16T12:44:16.443Z,38.20
2024-01-16T12:46:55.795Z,38.08
2024-01-16T12:49:24.858Z,37.92
2024-01-16T12:51:53.777Z,37.80
2024-01-16T12:54:24.545Z,37.62
2024-01-16T12:56:59.966Z,37.51
2024-01-16T12:59:32.037Z,37.19
2024-01-16T13:01:59.738Z,37.02
2024-01-16T13:04:28.343Z,36.53
2024-01-16T13:07:06.174Z,35.91
2024-01-16T13:09:33.976Z,35.79
2024-01-16T13:12:01.845Z,36.16
2024-01-16T13:14:31.134Z,36.45
2024-01-16T13:16:58.578Z,36.26
2024-01-16T13:19:26.581Z,36.02
2024-01-16T13:21:54.633Z,35.95
2024-01-16T13:24:24.299Z,35.86
2024-01-16T13:26:53.537Z,35.73
2024-01-16T13:29:21.708Z,35.73
2024-01-16T13:31:50.185Z,35.85
2024-01-16T13:34:19.866Z,35.32
2024-01-16T13:37:06.632Z,33.67
2024-01-16T13:39:39.425Z,31.07
2024-01-16T13:42:08.529Z,29.93
2024-01-16T13:44:36.090Z,29.71
2024-01-16T13:47:08.690Z,28.71
2024-01-16T13:49:40.994Z,27.40
2024-01-16T13:52:08.247Z,27.73
2024-01-16T13:54:39.290Z,27.27
2024-01-16T13:57:09.188Z,26.91
2024-01-16T13:59:38.167Z,26.00
2024-01-16T14:02:09.078Z,25.07
2024-01-16T14:04:36.373Z,24.13
2024-01-16T14:07:12.150Z,23.49
2024-01-16T14:09:45.211Z,22.85
2024-01-16T14:12:15.114Z,22.29
2024-01-16T14:14:44.042Z,21.72
2024-01-16T14:17:12.493Z,21.31
2024-01-16T14:19:40.538Z,21.00
2024-01-16T14:22:08.552Z,20.67
2024-01-16T14:24:36.051Z,20.45
2024-01-16T14:27:05.145Z,20.26
2024-01-16T14:29:35.165Z,20.07
2024-01-16T14:32:02.734Z,19.90
2024-01-16T14:34:30.506Z,19.65
2024-01-16T14:36:58.054Z,19.38
2024-01-16T14:39:26.537Z,19.12
2024-01-16T14:41:55.346Z,18.86
2024-01-16T14:44:22.976Z,18.71
2024-01-16T14:46:53.092Z,18.49
2024-01-16T14:49:24.692Z,18.25
2024-01-16T14:51:52.622Z,17.95
2024-01-16T14:54:20.232Z,17.71
2024-01-16T14:56:47.988Z,17.56
2024-01-16T14:59:16.511Z,17.45
2024-01-16T15:01:45.625Z,17.34
2024-01-16T15:04:13.551Z,17.22
2024-01-16T15:06:41.791Z,17.08
2024-01-16T15:09:13.096Z,16.98
2024-01-16T15:11:40.539Z,16.91
2024-01-16T15:14:08.799Z,16.83
2024-01-16T15:16:36.505Z,16.78
2024-01-16T15:19:04.165Z,16.74
2024-01-16T15:21:32.019Z,16.71
2024-01-16T15:23:59.620Z,16.64
2024-01-16T15:26:27.377Z,16.56
2024-01-16T15:28:54.729Z,16.52
2024-01-16T15:31:22.193Z,16.50
2024-01-16T15:33:50.437Z,16.51
2024-01-16T15:36:18.077Z,16.52
2024-01-16T15:38:46.496Z,16.50
2024-01-16T15:41:14.324Z,16.48
2024-01-16T15:43:41.905Z,16.47
2024-01-16T15:46:09.339Z,16.44
2024-01-16T15:48:39.062Z,16.39
2024-01-16T15:51:06.944Z,16.35
2024-01-16T15:53:35.657Z,16.30
2024-01-16T15:56:08.154Z,16.23
2024-01-16T15:58:35.647Z,16.16
2024-01-16T16:01:02.872Z,16.12
2024-01-16T16:03:30.417Z,16.07
2024-01-16T16:05:58.057Z,15.99
2024-01-16T16:08:25.999Z,15.92
2024-01-16T16:10:53.226Z,15.82
2024-01-16T16:13:20.173Z,15.74
2024-01-16T16:15:47.965Z,15.67
2024-01-16T16:18:15.405Z,15.63
2024-01-16T16:20:42.923Z,15.60
2024-01-16T16:23:11.162Z,15.55
2024-01-16T16:25:47.477Z,15.48
2024-01-16T16:28:15.401Z,15.48
2024-01-16T16:30:44.195Z,15.44
2024-01-16T16:33:11.828Z,15.31
2024-01-16T16:35:39.196Z,15.24
2024-01-16T16:38:06.977Z,15.25
2024-01-16T16:40:34.650Z,15.26
2024-01-16T16:43:03.372Z,15.28
2024-01-16T16:45:33.528Z,15.28
2024-01-16T16:48:01.183Z,15.27
2024-01-16T16:50:28.690Z,15.28
2024-01-16T16:52:56.308Z,15.29
2024-01-16T16:55:24.136Z,15.27
2024-01-16T16:57:51.947Z,15.27
2024-01-16T17:00:20.130Z,15.24
2024-01-16T17:02:50.886Z,15.22
2024-01-16T17:05:19.875Z,15.23
2024-01-16T17:07:50.276Z,15.22
2024-01-16T17:10:17.667Z,15.20
2024-01-16T17:12:50.800Z,15.21
2024-01-16T17:15:21.459Z,15.20
2024-01-16T17:17:49.149Z,15.23
2024-01-16T17:20:23.158Z,15.22
2024-01-16T17:22:52.151Z,15.24
2024-01-16T17:25:23.261Z,15.24
2024-01-16T17:27:51.174Z,15.24
2024-01-16T17:30:19.941Z,15.24
2024-01-16T17:32:48.344Z,15.18
2024-01-16T17:35:17.192Z,15.14
2024-01-16T17:37:46.224Z,15.11
2024-01-16T17:40:13.714Z,15.06
2024-01-16T17:42:50.997Z,15.01
2024-01-16T17:45:18.644Z,14.94
2024-01-16T17:47:46.345Z,14.89
2024-01-16T17:50:13.803Z,14.80
2024-01-16T17:52:41.216Z,14.75
2024-01-16T17:55:09.939Z,14.74
2024-01-16T17:57:37.234Z,14.74
2024-01-16T18:00:06.794Z,14.76
2024-01-16T18:02:35.917Z,14.74
2024-01-16T18:05:12.141Z,14.70
2024-01-16T18:07:42.535Z,14.62
2024-01-16T18:10:21.554Z,14.59
2024-01-16T18:12:50.471Z,14.53
2024-01-16T18:15:19.434Z,14.57
2024-01-16T18:17:51.244Z,14.60
2024-01-16T18:20:28.547Z,14.59
2024-01-16T18:22:59.895Z,14.56
2024-01-16T18:25:28.170Z,14.51
2024-01-16T18:27:57.892Z,14.47
2024-01-16T18:30:28.259Z,14.49
2024-01-16T18:32:57.569Z,14.49
2024-01-16T18:35:26.133Z,14.47
2024-01-16T18:37:56.092Z,14.48
2024-01-16T18:40:25.695Z,14.46
2024-01-16T18:42:54.875Z,14.44
2024-01-16T18:45:25.403Z,14.41
2024-01-16T18:47:54.354Z,14.35
2024-01-16T18:50:23.358Z,14.32
2024-01-16T18:52:53.816Z,14.35
2024-01-16T18:55:23.116Z,14.35
2024-01-16T18:57:53.471Z,14.36
2024-01-16T19:00:27.192Z,14.36
2024-01-16T19:02:55.857Z,14.39
2024-01-16T19:05:26.712Z,14.43
2024-01-16T19:07:55.018Z,14.46
2024-01-16T19:10:26.630Z,14.46
2024-01-16T19:12:54.249Z,14.43
2024-01-16T19:15:22.518Z,14.42
2024-01-16T19:18:01.849Z,14.37
2024-01-16T19:20:29.968Z,14.34
2024-01-16T19:22:57.974Z,14.33
2024-01-16T19:25:26.575Z,14.33
2024-01-16T19:27:56.327Z,14.35
2024-01-16T19:30:24.333Z,14.35
2024-01-16T19:32:52.322Z,14.30
2024-01-16T19:35:26.579Z,14.23
2024-01-16T19:37:57.322Z,14.15
2024-01-16T19:40:28.414Z,14.08
2024-01-16T19:43:07.247Z,14.06
2024-01-16T19:45:37.600Z,13.99
2024-01-16T19:48:28.734Z,13.98
2024-01-16T19:50:56.753Z,13.91
2024-01-16T19:53:47.574Z,13.89
2024-01-16T19:56:17.647Z,13.83
2024-01-16T19:58:51.533Z,13.85
2024-01-16T20:01:23.534Z,13.86
2024-01-16T20:03:52.272Z,13.88
2024-01-16T20:06:22.472Z,13.93
2024-01-16T20:08:58.147Z,13.95
2024-01-16T20:11:35.875Z,13.95
2024-01-16T20:14:08.353Z,13.92
2024-01-16T20:16:38.511Z,13.89
2024-01-16T20:19:08.928Z,13.90
2024-01-16T20:21:39.126Z,13.89
2024-01-16T20:24:08.687Z,13.88
2024-01-16T20:26:59.941Z,13.86
2024-01-16T20:29:30.826Z,13.76
2024-01-16T20:32:00.736Z,13.73
2024-01-16T20:34:32.371Z,13.68
2024-01-16T20:37:02.705Z,13.66
2024-01-16T20:39:32.087Z,13.61
2024-01-16T20:42:02.284Z,13.56
2024-01-16T20:44:34.171Z,13.53
2024-01-16T20:47:06.448Z,13.46
2024-01-16T20:49:35.591Z,13.39
2024-01-16T20:52:06.293Z,13.36
2024-01-16T20:54:34.244Z,13.34
2024-01-16T20:57:03.694Z,13.31
2024-01-16T20:59:35.092Z,13.19
2024-01-16T21:02:03.851Z,13.07
2024-01-16T21:04:32.807Z,13.01
2024-01-16T21:07:04.350Z,12.97
2024-01-16T21:09:33.611Z,12.95
2024-01-16T21:12:05.917Z,12.95
2024-01-16T21:14:35.436Z,12.98
2024-01-16T21:17:07.989Z,12.99
2024-01-16T21:19:38.278Z,13.01
2024-01-16T21:22:07.336Z,13.04
2024-01-16T21:24:37.387Z,13.07
2024-01-16T21:27:07.327Z,13.05
2024-01-16T21:29:34.920Z,13.04
2024-01-16T21:32:05.526Z,13.01
2024-01-16T21:34:34.985Z,12.93
2024-01-16T21:37:02.907Z,12.90
2024-01-16T21:39:33.595Z,12.90
2024-01-16T21:42:04.067Z,12.89
2024-01-16T21:44:34.327Z,12.88
2024-01-16T21:47:03.057Z,12.91
2024-01-16T21:49:32.243Z,12.91
2024-01-16T21:52:02.458Z,12.93
2024-01-16T21:54:33.011Z,12.98
2024-01-16T21:57:02.372Z,13.01
2024-01-16T21:59:31.824Z,13.01
2024-01-16T22:02:00.385Z,12.99
2024-01-16T22:04:28.812Z,12.99
2024-01-16T22:06:57.821Z,12.98
2024-01-16T22:09:28.826Z,12.99
2024-01-16T22:11:56.838Z,13.00
2024-01-16T22:14:25.487Z,13.05
2024-01-16T22:16:55.680Z,13.07
2024-01-16T22:19:23.278Z,13.06
2024-01-16T22:21:51.141Z,13.08
2024-01-16T22:24:19.066Z,13.12
2024-01-16T22:26:47.934Z,13.17
2024-01-16T22:29:16.368Z,13.16
2024-01-16T22:31:44.852Z,13.20
2024-01-16T22:34:12.630Z,13.27
2024-01-16T22:36:42.484Z,13.30
2024-01-16T22:39:15.958Z,13.26
2024-01-16T22:41:47.090Z,13.23
2024-01-16T22:44:14.975Z,13.12
2024-01-16T22:46:42.630Z,13.06
2024-01-16T22:49:11.220Z,13.05
2024-01-16T22:51:38.802Z,13.01
2024-01-16T22:54:06.420Z,13.03
2024-01-16T22:56:33.845Z,13.09
2024-01-16T22:59:04.018Z,13.12
2024-01-16T23:01:31.860Z,13.14
2024-01-16T23:03:59.868Z,13.16
2024-01-16T23:06:28.598Z,13.18
2024-01-16T23:08:56.804Z,13.17
2024-01-16T23:11:24.826Z,13.12
2024-01-16T23:13:52.718Z,13.11
2024-01-16T23:16:20.485Z,13.15
2024-01-16T23:18:48.533Z,13.13
2024-01-16T23:21:19.424Z,13.05
2024-01-16T23:23:48.468Z,13.04
2024-01-16T23:26:15.951Z,13.07
2024-01-16T23:28:43.909Z,13.11
2024-01-16T23:31:12.448Z,13.14
2024-01-16T23:33:41.304Z,13.16
2024-01-16T23:36:08.632Z,13.15
2024-01-16T23:38:38.505Z,13.16
2024-01-16T23:41:12.820Z,13.15
2024-01-16T23:43:42.972Z,13.10
2024-01-16T23:46:11.127Z,13.11
2024-01-16T23:48:38.800Z,13.12
2024-01-16T23:51:06.118Z,13.15
2024-01-16T23:53:33.512Z,13.16
2024-01-16T23:56:00.970Z,13.16
2024-01-16T23:58:28.414Z,13.18
